Time;durP1;ratioP1;P1;durP2;ratioP2;P2;SDS_P1;SDS_P2;PMS_P1;PMS_P2;Temp;Humidity;BMP_temperature;BMP_pressure;BME280_temperature;BME280_humidity;BME280_pressure;Samples;Min_cycle;Max_cycle;Signal;HPM_P1;HPM_P2
2021/12/11 00:01:36;;;;;;;11.68;2.38;;;;;;;-149.78;100.00;50616.19;5134084;28;20034;-72
2021/12/11 00:04:03;;;;;;;7.53;2.73;;;;;;;-149.78;100.00;50600.53;5133430;28;20027;-72
2021/12/11 00:06:33;;;;;;;14.63;3.60;;;;;;;-149.78;100.00;50584.88;5133832;28;20039;-72
2021/12/11 00:09:10;;;;;;;8.27;3.03;;;;;;;-149.78;100.00;50618.13;5133654;28;20042;-72
2021/12/11 00:11:41;;;;;;;12.55;3.17;;;;;;;-149.78;100.00;50616.19;5134079;27;20475;-72
2021/12/11 00:14:09;;;;;;;12.13;3.00;;;;;;;-149.78;100.00;50620.09;5115619;28;20031;-72
2021/12/11 00:16:37;;;;;;;11.65;2.80;;;;;;;-149.78;100.00;50584.88;5134045;28;20031;-72
2021/12/11 00:19:13;;;;;;;7.93;2.85;;;;;;;-149.78;100.00;50600.53;5132888;28;20039;-71
2021/12/11 00:21:40;;;;;;;7.47;2.80;;;;;;;-149.78;100.00;50565.31;5113429;28;20042;-72
2021/12/11 00:24:19;;;;;;;6.57;2.45;;;;;;;-149.78;100.00;50604.44;5113405;28;20055;-72
2021/12/11 00:26:51;;;;;;;9.50;2.53;;;;;;;-149.78;100.00;50584.88;5113546;28;20040;-72
2021/12/11 00:29:28;;;;;;;10.73;2.78;;;;;;;-149.78;100.00;50612.25;5095276;28;20039;-72
2021/12/11 00:31:59;;;;;;;5.75;2.38;;;;;;;-149.78;100.00;50584.88;5113387;28;20035;-72
2021/12/11 00:34:25;;;;;;;7.55;2.25;;;;;;;-149.78;100.00;50631.81;5126403;28;20362;-72
2021/12/11 00:36:57;;;;;;;5.95;2.40;;;;;;;-149.78;100.00;50588.78;5133270;28;20039;-72
2021/12/11 00:39:24;;;;;;;8.48;2.20;;;;;;;-149.78;100.00;50635.72;5131545;28;20060;-72
2021/12/11 00:41:54;;;;;;;9.75;2.40;;;;;;;-149.78;100.00;50618.13;5133225;28;20364;-72
2021/12/11 00:44:33;;;;;;;7.40;1.92;;;;;;;-149.78;100.00;50639.66;5133854;28;20035;-72
2021/12/11 00:47:23;;;;;;;7.80;2.10;;;;;;;-149.78;100.00;50608.34;5133860;28;20118;-72
2021/12/11 00:50:10;;;;;;;9.68;2.67;;;;;;;-149.78;100.00;50588.78;5133760;28;20027;-72
2021/12/11 00:52:47;;;;;;;4.55;1.73;;;;;;;-149.78;100.00;50592.72;5136524;27;20084;-72
2021/12/11 00:55:22;;;;;;;11.45;2.25;;;;;;;-149.78;100.00;50594.66;5137534;27;20023;-72
2021/12/11 00:57:49;;;;;;;5.03;2.00;;;;;;;-149.78;100.00;50580.97;5137395;27;20054;-72
2021/12/11 01:00:21;;;;;;;5.25;1.95;;;;;;;-149.78;100.00;50582.94;5137194;27;20480;-72
2021/12/11 01:02:52;;;;;;;8.95;1.77;;;;;;;-149.78;100.00;50635.72;5137405;27;20028;-72
2021/12/11 01:05:18;;;;;;;3.55;1.63;;;;;;;-149.78;100.00;50590.75;5137116;27;20027;-72
2021/12/11 01:07:44;;;;;;;6.35;2.25;;;;;;;-149.78;100.00;50600.53;5137256;27;20041;-72
2021/12/11 01:10:22;;;;;;;7.40;2.00;;;;;;;-149.78;100.00;50612.25;5137152;27;20069;-72
2021/12/11 01:12:56;;;;;;;8.23;2.40;;;;;;;-149.78;100.00;50565.31;5137278;27;20027;-72
2021/12/11 01:15:49;;;;;;;6.68;1.80;;;;;;;-149.78;100.00;50598.56;5137182;27;20100;-72
2021/12/11 01:21:29;;;;;;;6.75;2.03;;;;;;;-149.78;100.00;50612.25;5136735;27;20023;-72
2021/12/11 01:24:29;;;;;;;6.85;2.33;;;;;;;-149.78;100.00;50620.09;5136727;27;20062;-72
2021/12/11 01:27:01;;;;;;;18.05;2.90;;;;;;;-149.78;100.00;50588.78;5136880;27;20110;-72
2021/12/11 01:29:28;;;;;;;6.43;2.30;;;;;;;-149.78;100.00;50629.88;5136912;27;20030;-72
2021/12/11 01:31:56;;;;;;;9.20;2.67;;;;;;;-149.78;100.00;50651.38;5131397;27;20027;-72
2021/12/11 01:34:23;;;;;;;15.57;3.00;;;;;;;-149.78;100.00;50602.47;5136765;27;20031;-71
2021/12/11 01:36:50;;;;;;;8.27;2.03;;;;;;;-149.78;100.00;50590.75;5136817;27;20599;-72
2021/12/11 01:39:21;;;;;;;7.55;2.38;;;;;;;-149.78;100.00;50631.81;5136640;27;20031;-71
2021/12/11 01:41:48;;;;;;;7.47;1.92;;;;;;;-149.78;100.00;50608.34;5136677;27;20424;-72
2021/12/11 01:44:20;;;;;;;8.27;2.55;;;;;;;-149.78;100.00;50608.34;5136660;27;20035;-72
2021/12/11 01:46:47;;;;;;;9.30;2.80;;;;;;;-149.78;100.00;50604.44;5136620;27;20027;-72
2021/12/11 01:49:20;;;;;;;11.32;2.78;;;;;;;-149.78;100.00;50616.19;5136588;27;20374;-72
2021/12/11 01:51:54;;;;;;;8.90;2.67;;;;;;;-149.78;100.00;50620.09;5116015;28;20494;-72
2021/12/11 01:54:29;;;;;;;15.02;2.97;;;;;;;-149.78;100.00;50606.41;5115953;28;20067;-72
2021/12/11 01:57:01;;;;;;;17.65;3.50;;;;;;;-149.78;100.00;50624.00;5115701;28;20028;-72
2021/12/11 01:59:32;;;;;;;10.18;2.85;;;;;;;-149.78;100.00;50616.19;5115821;28;20037;-72
2021/12/11 02:02:07;;;;;;;17.48;3.45;;;;;;;-149.78;100.00;50584.88;5115452;28;20032;-72
2021/12/11 02:04:36;;;;;;;7.85;2.75;;;;;;;-149.78;100.00;50588.78;5128493;27;20023;-72
2021/12/11 02:07:28;;;;;;;6.40;2.78;;;;;;;-149.78;100.00;50586.84;5136110;27;20027;-72
2021/12/11 02:09:57;;;;;;;8.00;2.70;;;;;;;-149.78;100.00;50600.53;5136053;27;20035;-72
2021/12/11 02:12:35;;;;;;;6.50;3.00;;;;;;;-149.78;100.00;50584.88;5135986;27;20023;-72
2021/12/11 02:15:03;;;;;;;15.88;3.00;;;;;;;-149.78;100.00;50580.97;5117404;27;20031;-72
2021/12/11 02:17:40;;;;;;;11.93;3.20;;;;;;;-149.78;100.00;50610.31;5136129;27;20054;-72
2021/12/11 02:20:13;;;;;;;9.95;3.35;;;;;;;-149.78;100.00;50612.25;5122382;27;20031;-72
2021/12/11 02:22:46;;;;;;;9.15;3.10;;;;;;;-149.78;100.00;50651.38;5112918;28;20411;-72
2021/12/11 02:25:17;;;;;;;10.50;2.70;;;;;;;-149.78;100.00;50612.25;5115267;28;20204;-72
2021/12/11 02:27:51;;;;;;;12.98;3.63;;;;;;;-149.78;100.00;50612.25;5115218;28;20363;-72
2021/12/11 02:30:23;;;;;;;11.48;3.35;;;;;;;-149.78;100.00;50627.91;5115058;28;20040;-72
2021/12/11 02:33:07;;;;;;;11.70;3.60;;;;;;;-149.78;100.00;50600.53;5115107;28;20356;-72
2021/12/11 02:35:37;;;;;;;7.20;2.97;;;;;;;-149.78;100.00;50608.34;5115190;28;20475;-72
2021/12/11 02:38:22;;;;;;;8.55;3.17;;;;;;;-149.78;100.00;50620.09;5114880;28;20094;-72
2021/12/11 02:40:55;;;;;;;10.00;2.92;;;;;;;-149.78;100.00;50592.72;5130761;27;20466;-72
2021/12/11 02:43:30;;;;;;;10.45;3.25;;;;;;;-149.78;100.00;50602.47;5135585;27;20491;-72
2021/12/11 02:46:23;;;;;;;9.70;3.17;;;;;;;-149.78;100.00;50625.94;5135440;27;20490;-72
2021/12/11 02:49:12;;;;;;;9.13;2.90;;;;;;;-149.78;100.00;50612.25;5134755;27;20525;-72
2021/12/11 02:51:55;;;;;;;7.88;2.67;;;;;;;-149.78;100.00;50608.34;5119585;27;20034;-72
2021/12/11 02:54:37;;;;;;;8.30;2.85;;;;;;;-149.78;100.00;50596.63;5132024;27;20486;-72
2021/12/11 02:57:11;;;;;;;9.40;2.97;;;;;;;-149.78;100.00;50624.00;5135079;27;20034;-72
2021/12/11 02:59:42;;;;;;;13.80;3.50;;;;;;;-149.78;100.00;50616.19;5135143;27;20027;-72
2021/12/11 03:02:17;;;;;;;9.70;2.93;;;;;;;-149.78;100.00;50600.53;5135049;27;20137;-72
2021/12/11 03:04:57;;;;;;;10.23;2.75;;;;;;;-149.78;100.00;50592.72;5135081;27;20035;-72
2021/12/11 03:07:39;;;;;;;9.73;3.30;;;;;;;-149.78;100.00;50608.34;5135009;27;20058;-72
2021/12/11 03:10:09;;;;;;;11.15;3.45;;;;;;;-149.78;100.00;50598.56;5134745;27;20037;-72
2021/12/11 03:12:36;;;;;;;9.55;3.08;;;;;;;-149.78;100.00;50612.25;5134974;27;20065;-72
2021/12/11 03:15:04;;;;;;;11.45;3.53;;;;;;;-149.78;100.00;50577.06;5133759;27;20031;-72
2021/12/11 03:17:30;;;;;;;7.65;3.08;;;;;;;-149.78;100.00;50594.66;5134677;27;20050;-72
2021/12/11 03:19:56;;;;;;;7.57;3.20;;;;;;;-149.78;100.00;50584.88;5137264;27;20085;-72
2021/12/11 03:22:30;;;;;;;11.05;3.33;;;;;;;-149.78;100.00;50600.53;5128772;27;20027;-72
2021/12/11 03:24:57;;;;;;;9.10;3.30;;;;;;;-149.78;100.00;50612.25;5134311;27;20081;-72
2021/12/11 03:27:23;;;;;;;10.80;3.00;;;;;;;-149.78;100.00;50596.63;5117382;27;20064;-72
2021/12/11 03:29:49;;;;;;;15.15;3.20;;;;;;;-149.78;100.00;50612.25;5133675;27;20099;-72
2021/12/11 03:32:16;;;;;;;16.40;4.28;;;;;;;-149.78;100.00;50620.09;5133946;27;20035;-72
2021/12/11 03:34:44;;;;;;;14.10;2.85;;;;;;;-149.78;100.00;50598.56;5134386;27;20035;-72
2021/12/11 03:37:13;;;;;;;13.43;3.55;;;;;;;-149.78;100.00;50645.50;5134342;27;20063;-72
2021/12/11 03:39:44;;;;;;;9.68;2.72;;;;;;;-149.78;100.00;50622.03;5134323;27;20031;-72
2021/12/11 03:42:22;;;;;;;10.75;3.22;;;;;;;-149.78;100.00;50600.53;5134293;27;20538;-72
2021/12/11 03:44:48;;;;;;;11.13;3.03;;;;;;;-149.78;100.00;50610.31;5134365;27;20038;-72
2021/12/11 03:47:21;;;;;;;8.65;3.75;;;;;;;-149.78;100.00;50631.81;5134229;27;20035;-72
2021/12/11 03:49:47;;;;;;;7.30;3.03;;;;;;;-149.78;100.00;50590.75;5134457;27;20164;-72
2021/12/11 03:52:14;;;;;;;13.63;3.63;;;;;;;-149.78;100.00;50612.25;5134334;27;20052;-72
2021/12/11 03:54:45;;;;;;;14.13;3.15;;;;;;;-149.78;100.00;50561.41;5134282;28;20031;-72
2021/12/11 03:57:16;;;;;;;9.73;2.80;;;;;;;-149.78;100.00;50620.09;5134041;27;20183;-72
2021/12/11 03:59:47;;;;;;;6.10;2.63;;;;;;;-149.78;100.00;50604.44;5134111;27;20038;-72
2021/12/11 04:02:17;;;;;;;8.23;2.72;;;;;;;-149.78;100.00;50577.06;5115541;28;20027;-72
2021/12/11 04:04:51;;;;;;;8.73;2.40;;;;;;;-149.78;100.00;50573.16;5134161;28;20054;-72
2021/12/11 04:07:23;;;;;;;10.68;3.67;;;;;;;-149.78;100.00;50565.31;5134061;27;20114;-72
2021/12/11 04:09:50;;;;;;;8.18;2.60;;;;;;;-149.78;100.00;50616.19;5134256;28;20065;-72
2021/12/11 04:12:17;;;;;;;8.30;2.60;;;;;;;-149.78;100.00;50631.81;5134117;28;20054;-72
2021/12/11 04:14:46;;;;;;;13.60;2.90;;;;;;;-149.78;100.00;50596.63;5134313;27;20031;-72
2021/12/11 04:17:18;;;;;;;9.80;2.70;;;;;;;-149.78;100.00;50600.53;5134264;27;20035;-72
2021/12/11 04:19:44;;;;;;;8.00;2.40;;;;;;;-149.78;100.00;50598.56;5127353;28;20030;-72
2021/12/11 04:22:10;;;;;;;8.93;2.28;;;;;;;-149.78;100.00;50624.00;5113483;28;20036;-72
2021/12/11 04:24:39;;;;;;;6.15;1.92;;;;;;;-149.78;100.00;50594.66;5113229;28;20055;-72
2021/12/11 04:27:08;;;;;;;8.48;2.30;;;;;;;-149.78;100.00;50577.06;5100468;27;20559;-72
2021/12/11 04:29:33;;;;;;;7.50;2.35;;;;;;;-149.78;100.00;50600.53;5138137;27;20027;-72
2021/12/11 04:32:01;;;;;;;10.80;2.20;;;;;;;-149.78;100.00;50592.72;5134705;27;20030;-72
2021/12/11 04:34:28;;;;;;;10.40;2.65;;;;;;;-149.78;100.00;50575.09;5136909;27;20078;-72
2021/12/11 04:37:18;;;;;;;11.52;2.22;;;;;;;-149.78;100.00;50629.88;5117791;27;20039;-72
2021/12/11 04:39:51;;;;;;;9.35;2.05;;;;;;;-149.78;100.00;50573.16;5117416;28;20465;-72
2021/12/11 04:42:38;;;;;;;10.05;2.00;;;;;;;-149.78;100.00;50588.78;5119506;27;20031;-72
2021/12/11 04:45:07;;;;;;;11.95;2.65;;;;;;;-149.78;100.00;50588.78;5119453;27;20037;-72
2021/12/11 04:47:52;;;;;;;11.65;2.28;;;;;;;-149.78;100.00;50573.16;5137751;27;20027;-72
2021/12/11 04:50:35;;;;;;;9.15;2.08;;;;;;;-149.78;100.00;50600.53;5137674;27;20039;-72
2021/12/11 04:53:05;;;;;;;8.07;2.10;;;;;;;-149.78;100.00;50588.78;5137487;27;20038;-72
2021/12/11 05:11:51;;;;;;;7.03;2.60;;;;;;;-149.78;100.00;50577.06;5137196;27;20463;-72
2021/12/11 05:14:18;;;;;;;10.52;2.88;;;;;;;-149.78;100.00;50582.94;5137124;27;20164;-72
2021/12/11 05:16:44;;;;;;;13.82;2.67;;;;;;;-149.78;100.00;50631.81;5136997;27;20035;-72
2021/12/11 05:19:11;;;;;;;9.80;2.60;;;;;;;-149.78;100.00;50633.78;5136618;27;20100;-72
2021/12/11 05:21:37;;;;;;;9.02;2.78;;;;;;;-149.78;100.00;50647.47;5137024;27;20509;-72
2021/12/11 05:24:05;;;;;;;16.25;3.13;;;;;;;-149.78;100.00;50590.75;5136891;27;20058;-72
2021/12/11 05:26:31;;;;;;;11.30;2.35;;;;;;;-149.78;100.00;50651.38;5136916;27;20035;-72
2021/12/11 05:28:56;;;;;;;10.68;2.90;;;;;;;-149.78;100.00;50600.53;5136765;27;20103;-72
2021/12/11 05:31:22;;;;;;;10.13;2.33;;;;;;;-149.78;100.00;50573.16;5136652;27;20084;-72
2021/12/11 05:33:48;;;;;;;10.93;2.65;;;;;;;-149.78;100.00;50612.25;5136632;27;20035;-72
2021/12/11 05:36:16;;;;;;;8.95;2.78;;;;;;;-149.78;100.00;50618.13;5118020;27;20033;-72
2021/12/11 05:38:43;;;;;;;9.57;2.75;;;;;;;-149.78;100.00;50635.72;5124841;27;20045;-72
2021/12/11 05:41:12;;;;;;;9.80;3.03;;;;;;;-149.78;100.00;50631.81;5136130;27;20383;-72
2021/12/11 05:43:39;;;;;;;8.48;2.83;;;;;;;-149.78;100.00;50596.63;5136385;27;20035;-72
2021/12/11 05:46:07;;;;;;;12.18;2.75;;;;;;;-149.78;100.00;50616.19;5136447;27;20043;-72
2021/12/11 05:48:33;;;;;;;10.85;3.30;;;;;;;-149.78;100.00;50616.19;5136496;27;20164;-72
2021/12/11 05:51:03;;;;;;;14.68;3.17;;;;;;;-149.78;100.00;50616.19;5136287;27;20034;-72
2021/12/11 05:53:31;;;;;;;10.05;3.15;;;;;;;-149.78;100.00;50610.31;5136433;27;20041;-72
2021/12/11 05:56:00;;;;;;;10.25;2.65;;;;;;;-149.78;100.00;50612.25;5136176;27;20027;-72
2021/12/11 06:01:10;;;;;;;8.15;2.85;;;;;;;-149.78;100.00;50584.88;5136245;27;20039;-72
2021/12/11 06:03:37;;;;;;;11.43;2.85;;;;;;;-149.78;100.00;50594.66;5136013;27;20362;-72
2021/12/11 06:06:06;;;;;;;10.38;2.58;;;;;;;-149.78;100.00;50602.47;5135977;27;20039;-72
2021/12/11 06:08:32;;;;;;;11.23;2.30;;;;;;;-149.78;100.00;50612.25;5117250;27;20031;-73
2021/12/11 06:10:59;;;;;;;7.43;2.67;;;;;;;-149.78;100.00;50647.47;5135946;27;20031;-72
2021/12/11 06:13:25;;;;;;;7.45;3.03;;;;;;;-149.78;100.00;50631.81;5135864;27;20027;-72
2021/12/11 06:15:53;;;;;;;13.50;3.05;;;;;;;-149.78;100.00;50596.63;5117585;27;20046;-72
2021/12/11 06:18:19;;;;;;;7.43;2.60;;;;;;;-149.78;100.00;50614.22;5135847;27;20059;-72
2021/12/11 06:20:47;;;;;;;13.65;2.90;;;;;;;-149.78;100.00;50627.91;5119643;27;20031;-72
2021/12/11 06:23:17;;;;;;;11.43;2.92;;;;;;;-149.78;100.00;50596.63;5115038;28;20121;-72
2021/12/11 06:25:43;;;;;;;12.02;3.80;;;;;;;-149.78;100.00;50637.69;5126577;27;20034;-72
2021/12/11 06:28:09;;;;;;;22.55;4.57;;;;;;;-149.78;100.00;50616.19;5135630;27;20039;-72
2021/12/11 06:30:38;;;;;;;18.92;4.85;;;;;;;-149.78;100.00;50608.34;5135843;27;20107;-72
2021/12/11 06:33:04;;;;;;;22.33;5.80;;;;;;;-149.78;100.00;50575.09;5135279;27;20049;-72
2021/12/11 06:35:36;;;;;;;20.13;5.88;;;;;;;-149.78;100.00;50618.13;5135709;27;20035;-72
2021/12/11 06:38:05;;;;;;;21.08;6.43;;;;;;;-149.78;100.00;50608.34;5135565;27;20033;-72
2021/12/11 06:40:31;;;;;;;23.45;6.40;;;;;;;-149.78;100.00;50612.25;5135461;27;20038;-72
2021/12/11 06:42:58;;;;;;;23.45;5.88;;;;;;;-149.78;100.00;50584.88;5135184;27;20038;-72
2021/12/11 06:45:26;;;;;;;22.08;5.32;;;;;;;-149.78;100.00;50618.13;5135377;27;20035;-72
2021/12/11 06:47:52;;;;;;;23.15;6.22;;;;;;;-149.78;100.00;50557.50;5116793;27;20031;-72
2021/12/11 06:50:19;;;;;;;30.85;7.72;;;;;;;-149.78;100.00;50647.47;5100025;27;20031;-72
2021/12/11 06:52:48;;;;;;;25.00;8.40;;;;;;;-149.78;100.00;50592.72;5117031;27;20035;-72
2021/12/11 06:55:15;;;;;;;28.23;8.05;;;;;;;-149.78;100.00;50596.63;5135322;27;20106;-72
2021/12/11 06:57:41;;;;;;;33.75;9.55;;;;;;;-149.78;100.00;50604.44;5135195;27;20039;-72
2021/12/11 07:00:08;;;;;;;29.63;8.52;;;;;;;-149.78;100.00;50608.34;5135258;27;20038;-72
2021/12/11 07:02:35;;;;;;;29.45;9.10;;;;;;;-149.78;100.00;50614.22;5134982;27;20039;-72
2021/12/11 07:05:00;;;;;;;30.38;9.55;;;;;;;-149.78;100.00;50616.19;5134915;27;20041;-72
2021/12/11 07:07:32;;;;;;;29.80;9.55;;;;;;;-149.78;100.00;50588.78;5135078;27;20482;-72
2021/12/11 07:09:59;;;;;;;33.78;8.88;;;;;;;-149.78;100.00;50573.16;5116412;27;20039;-72
2021/12/11 07:12:24;;;;;;;31.52;8.90;;;;;;;-149.78;100.00;50592.72;5143542;27;20457;-72
2021/12/11 07:14:52;;;;;;;38.92;9.15;;;;;;;-149.78;100.00;50584.88;5136956;27;20076;-72
2021/12/11 07:17:19;;;;;;;31.58;8.68;;;;;;;-149.78;100.00;50580.97;5155437;27;20034;-72
2021/12/11 07:19:45;;;;;;;23.92;8.40;;;;;;;-149.78;100.00;50596.63;5144571;27;20477;-72
2021/12/11 07:22:12;;;;;;;32.92;7.72;;;;;;;-149.78;100.00;50624.00;5131433;27;20031;-73
2021/12/11 07:24:54;;;;;;;30.30;7.72;;;;;;;-149.78;100.00;50588.78;5126678;27;20130;-73
2021/12/11 07:27:20;;;;;;;27.57;8.77;;;;;;;-149.78;100.00;50608.34;5099522;27;20524;-72
2021/12/11 07:29:45;;;;;;;23.60;6.82;;;;;;;-149.78;100.00;50600.53;5126628;27;20260;-72
2021/12/11 07:32:12;;;;;;;25.30;7.45;;;;;;;-149.78;100.00;50565.31;5115418;27;20028;-72
2021/12/11 07:34:39;;;;;;;33.00;7.45;;;;;;;-149.78;100.00;50600.53;5115907;27;20028;-72
2021/12/11 07:37:06;;;;;;;26.08;6.80;;;;;;;-149.78;100.00;50577.06;5117443;27;20122;-72
2021/12/11 07:39:32;;;;;;;25.95;7.20;;;;;;;-149.78;100.00;50596.63;5126793;27;20131;-72
2021/12/11 07:41:58;;;;;;;25.27;8.52;;;;;;;-149.78;100.00;50573.16;5132172;27;20027;-72
2021/12/11 07:44:25;;;;;;;27.70;7.93;;;;;;;-149.78;100.00;50604.44;5134044;27;20041;-72
2021/12/11 07:46:54;;;;;;;26.00;9.05;;;;;;;-149.78;100.00;50608.34;5127951;27;20039;-73
2021/12/11 07:49:20;;;;;;;33.60;8.55;;;;;;;-149.78;100.00;50592.72;5112344;27;20034;-72
2021/12/11 07:51:48;;;;;;;31.30;9.88;;;;;;;-149.78;100.00;50573.16;5111044;27;20019;-72
2021/12/11 07:54:14;;;;;;;38.15;9.65;;;;;;;-149.78;100.00;50588.78;5112009;27;20023;-72
2021/12/11 07:56:40;;;;;;;40.97;9.85;;;;;;;-149.78;100.00;50557.50;5133222;27;20031;-72
2021/12/11 07:59:09;;;;;;;29.75;9.23;;;;;;;-149.78;100.00;50580.97;5126614;27;20018;-72
2021/12/11 08:01:41;;;;;;;29.63;9.65;;;;;;;-149.78;100.00;50580.97;5127930;27;20416;-72
2021/12/11 08:04:08;;;;;;;35.10;9.87;;;;;;;-149.78;100.00;50592.72;5129779;27;20033;-72
2021/12/11 08:06:35;;;;;;;33.22;10.00;;;;;;;-149.78;100.00;50565.31;5133256;27;20469;-72
2021/12/11 08:09:05;;;;;;;30.88;9.98;;;;;;;-149.78;100.00;50608.34;5137191;27;20050;-73
2021/12/11 08:11:31;;;;;;;37.03;9.75;;;;;;;-149.78;100.00;50573.16;5135773;27;20027;-72
2021/12/11 08:13:58;;;;;;;24.88;10.27;;;;;;;-149.78;100.00;50588.78;5132993;27;20062;-72
2021/12/11 08:16:33;;;;;;;38.38;9.65;;;;;;;-149.78;100.00;50541.84;5122542;27;20081;-72
2021/12/11 08:19:00;;;;;;;34.67;9.77;;;;;;;-149.78;100.00;50580.97;5140236;27;20030;-72
2021/12/11 08:21:26;;;;;;;27.95;9.23;;;;;;;-149.78;100.00;50600.53;5134210;27;20501;-70
2021/12/11 08:23:55;;;;;;;25.75;8.43;;;;;;;-149.78;100.00;50624.00;5140477;27;20450;-69
2021/12/11 08:26:23;;;;;;;28.45;8.35;;;;;;;-149.78;100.00;50596.63;5138037;27;20414;-70
2021/12/11 08:28:50;;;;;;;23.60;7.18;;;;;;;-149.78;100.00;50600.53;5141919;27;20031;-72
2021/12/11 08:31:18;;;;;;;18.73;6.00;;;;;;;-149.78;100.00;50573.16;5134264;27;20045;-71
2021/12/11 08:33:44;;;;;;;25.95;5.40;;;;;;;-149.78;100.00;50596.63;5138865;27;20107;-69
2021/12/11 08:36:10;;;;;;;16.92;4.85;;;;;;;-149.78;100.00;50608.34;5113314;27;20035;-69
2021/12/11 08:38:36;;;;;;;19.20;5.13;;;;;;;-149.78;100.00;50604.44;5132910;27;20034;-70
2021/12/11 08:41:06;;;;;;;19.17;4.15;;;;;;;-149.78;100.00;50631.81;5123390;27;20051;-71
2021/12/11 08:43:32;;;;;;;18.20;4.45;;;;;;;-149.78;100.00;50584.88;5138162;27;20027;-70
2021/12/11 08:46:14;;;;;;;14.75;4.45;;;;;;;-149.78;100.00;50579.00;5137708;27;20474;-69
2021/12/11 08:48:45;;;;;;;;;;;;;;;-149.78;100.00;50577.06;5134154;27;20072;-69
2021/12/11 08:51:20;;;;;;;16.50;3.53;;;;;;;-149.78;100.00;50588.78;5141243;27;19945;-69
2021/12/11 08:53:49;;;;;;;14.77;4.25;;;;;;;-149.78;100.00;50600.53;5126785;27;20060;-70
2021/12/11 08:56:16;;;;;;;19.33;4.10;;;;;;;-149.78;100.00;50590.75;5148199;27;20034;-69
2021/12/11 08:58:44;;;;;;;16.80;3.67;;;;;;;-149.78;100.00;50592.72;5132383;27;20031;-70
2021/12/11 09:01:12;;;;;;;22.40;4.43;;;;;;;-149.78;100.00;50580.97;5153540;27;20509;-71
2021/12/11 09:03:40;;;;;;;15.45;3.08;;;;;;;-149.78;100.00;50596.63;5136216;27;20042;-71
2021/12/11 09:06:14;;;;;;;12.20;2.45;;;;;;;-149.78;100.00;50573.16;5153414;27;20031;-70
2021/12/11 09:08:46;;;;;;;13.57;3.30;;;;;;;-149.78;100.00;50584.88;5144557;27;20058;-70
2021/12/11 09:11:15;;;;;;;;;;;;;;;-149.78;100.00;50534.03;5141894;27;20027;-70
2021/12/11 09:14:13;;;;;;;19.33;3.30;;;;;;;-149.78;100.00;50549.69;5142386;27;19914;-70
2021/12/11 09:16:52;;;;;;;14.32;3.05;;;;;;;-149.78;100.00;50545.75;5134851;27;20044;-69
2021/12/11 09:19:24;;;;;;;14.30;3.22;;;;;;;-149.78;100.00;50551.63;5127239;27;20054;-71
2021/12/11 09:22:11;;;;;;;13.60;2.92;;;;;;;-149.78;100.00;50592.72;5134629;27;20030;-70
2021/12/11 09:24:48;;;;;;;18.48;3.60;;;;;;;-149.78;100.00;50545.75;5138946;27;20055;-70
2021/12/11 09:27:48;;;;;;;17.20;3.67;;;;;;;-149.78;100.00;50580.97;5129948;27;20030;-72
2021/12/11 09:30:18;;;;;;;20.95;3.60;;;;;;;-149.78;100.00;50592.72;5123482;27;20074;-71
2021/12/11 09:32:49;;;;;;;14.60;3.70;;;;;;;-149.78;100.00;50565.31;5141783;27;20019;-71
2021/12/11 09:35:31;;;;;;;17.60;4.00;;;;;;;-149.78;100.00;50571.19;5133106;27;20042;-70
2021/12/11 09:38:01;;;;;;;15.80;3.40;;;;;;;-149.78;100.00;50565.31;5139433;27;20026;-72
2021/12/11 09:40:38;;;;;;;11.50;3.38;;;;;;;-149.78;100.00;50588.78;5131702;27;20500;-73
2021/12/11 09:43:04;;;;;;;11.77;3.00;;;;;;;-149.78;100.00;50596.63;5135501;27;20035;-73
2021/12/11 09:45:42;;;;;;;16.38;3.00;;;;;;;-149.78;100.00;50561.41;5136621;27;20037;-73
2021/12/11 09:48:17;;;;;;;18.17;3.78;;;;;;;-149.78;100.00;50573.16;5135236;27;20023;-72
2021/12/11 09:50:58;;;;;;;16.48;3.70;;;;;;;-149.78;100.00;50534.03;5136694;27;20023;-68
2021/12/11 09:53:33;;;;;;;10.77;3.63;;;;;;;-149.78;100.00;50565.31;5120225;27;20359;-68
2021/12/11 09:55:59;;;;;;;13.05;3.47;;;;;;;-149.78;100.00;50553.59;5133084;27;20049;-69
2021/12/11 09:58:32;;;;;;;18.35;3.53;;;;;;;-149.78;100.00;50526.22;5136552;27;20530;-69
2021/12/11 10:01:03;;;;;;;16.17;3.88;;;;;;;-149.78;100.00;50569.22;5139021;27;20064;-68
2021/12/11 10:03:33;;;;;;;16.75;3.55;;;;;;;-149.78;100.00;50592.72;5139272;27;20037;-69
2021/12/11 10:06:12;;;;;;;17.10;4.07;;;;;;;-149.78;100.00;50590.75;5134203;27;20042;-69
2021/12/11 10:08:42;;;;;;;13.15;4.13;;;;;;;-149.78;100.00;50565.31;5127307;27;20461;-74
2021/12/11 10:11:37;;;;;;;19.92;4.20;;;;;;;-149.78;100.00;50569.22;5126469;27;20023;-74
2021/12/11 10:14:09;;;;;;;18.80;4.13;;;;;;;-149.78;100.00;50584.88;5115421;27;20035;-73
2021/12/11 10:16:42;;;;;;;19.10;4.30;;;;;;;-149.78;100.00;50549.69;5116162;27;20030;-73
2021/12/11 10:19:11;;;;;;;19.45;4.47;;;;;;;-149.78;100.00;50545.75;5122516;27;20088;-73
2021/12/11 10:22:13;;;;;;;22.33;5.25;;;;;;;-149.78;100.00;50522.28;5122078;27;20221;-74
2021/12/11 10:24:39;;;;;;;14.10;4.18;;;;;;;-149.78;100.00;50584.88;5138611;27;20042;-72
2021/12/11 10:27:08;;;;;;;15.55;4.05;;;;;;;-149.78;100.00;50557.50;5134697;27;20031;-75
2021/12/11 10:29:34;;;;;;;21.92;4.25;;;;;;;-149.78;100.00;50573.16;5130042;27;20043;-71
2021/12/11 10:32:06;;;;;;;16.92;3.75;;;;;;;-149.78;100.00;50563.38;5128843;27;20022;-73
2021/12/11 10:34:34;;;;;;;13.10;3.92;;;;;;;-149.78;100.00;50545.75;5140505;27;20026;-71
2021/12/11 10:37:15;;;;;;;16.23;4.32;;;;;;;-149.78;100.00;50594.66;5124261;27;20035;-67
2021/12/11 10:39:45;;;;;;;24.02;4.75;;;;;;;-149.78;100.00;50561.41;5139358;27;20031;-67
2021/12/11 10:42:11;;;;;;;19.55;4.55;;;;;;;-149.78;100.00;50559.47;5154680;27;20031;-70
2021/12/11 10:44:41;;;;;;;20.38;4.47;;;;;;;-149.78;100.00;50539.91;5156025;27;20077;-69
2021/12/11 10:47:18;;;;;;;16.88;4.30;;;;;;;-149.78;100.00;50537.94;5155966;27;20076;-69
2021/12/11 10:49:45;;;;;;;13.30;3.88;;;;;;;-149.78;100.00;50573.16;5136791;27;20061;-69
2021/12/11 10:52:13;;;;;;;17.05;4.03;;;;;;;-149.78;100.00;50553.59;5133753;27;20193;-70
2021/12/11 10:54:40;;;;;;;16.00;3.80;;;;;;;-149.78;100.00;50553.59;5130928;27;20035;-68
2021/12/11 10:57:06;;;;;;;17.65;3.63;;;;;;;-149.78;100.00;50565.31;5126090;27;20042;-68
2021/12/11 10:59:35;;;;;;;14.50;3.58;;;;;;;-149.78;100.00;50537.94;5126834;27;20117;-69
2021/12/11 11:02:11;;;;;;;14.57;3.95;;;;;;;-149.78;100.00;50537.94;5134730;27;20031;-68
2021/12/11 11:04:46;;;;;;;10.30;3.20;;;;;;;-149.78;100.00;50565.31;5134498;27;20067;-69
2021/12/11 11:07:11;;;;;;;10.13;2.78;;;;;;;-149.78;100.00;50520.34;5114201;28;20044;-69
2021/12/11 11:09:39;;;;;;;15.23;3.13;;;;;;;-149.78;100.00;50559.47;5114266;28;20138;-68
2021/12/11 11:12:10;;;;;;;18.10;3.38;;;;;;;-149.78;100.00;50545.75;5114447;28;20433;-68
2021/12/11 11:14:36;;;;;;;12.15;3.20;;;;;;;-149.78;100.00;50553.59;5138064;27;20055;-68
2021/12/11 11:17:13;;;;;;;14.68;3.00;;;;;;;-149.78;100.00;50577.06;5133383;27;20666;-69
2021/12/11 11:19:40;;;;;;;16.27;3.40;;;;;;;-149.78;100.00;50534.03;5133488;27;20476;-69
2021/12/11 11:22:15;;;;;;;16.58;3.30;;;;;;;-149.78;100.00;50532.06;5133877;27;20367;-66
2021/12/11 11:24:58;;;;;;;14.63;3.30;;;;;;;-149.78;100.00;50537.94;5132287;27;20382;-69
2021/12/11 11:27:24;;;;;;;17.05;2.85;;;;;;;-149.78;100.00;50588.78;5114633;27;20386;-68
2021/12/11 11:29:50;;;;;;;15.98;3.15;;;;;;;-149.78;100.00;50565.31;5115255;27;20536;-68
2021/12/11 11:32:22;;;;;;;13.98;3.40;;;;;;;-149.78;100.00;50537.94;5131404;27;20474;-68
2021/12/11 11:34:48;;;;;;;21.40;2.85;;;;;;;-149.78;100.00;50612.25;5124123;27;20030;-68
2021/12/11 11:37:22;;;;;;;23.98;3.97;;;;;;;-149.78;100.00;50537.94;5115481;27;20031;-68
2021/12/11 11:39:51;;;;;;;12.55;3.00;;;;;;;-149.78;100.00;50549.69;5109743;27;20092;-69
2021/12/11 11:42:19;;;;;;;17.83;3.33;;;;;;;-149.78;100.00;50541.84;5114037;27;20069;-69
2021/12/11 11:44:47;;;;;;;14.90;3.50;;;;;;;-149.78;100.00;50580.97;5134397;27;20087;-70